ADDS METAR Data INFO
IDs: Format: Raw Decoded Include TAF

Data at: 0923 UTC 13 Dec 2017

KM19 130856Z AUTO 20006KT 10SM CLR M03/M06 A3010 RMK AO2 SLP198 T10281056 56018
KM19 130756Z AUTO 19004KT 10SM CLR M02/M05 A3012 RMK AO2 SLP205 T10221050
KM19 130656Z AUTO 21006KT 10SM CLR M03/M06 A3013 RMK AO2 SLP208 T10281061
KM19 130556Z AUTO 22003KT 10SM CLR M02/M06 A3015 RMK AO2 SLP216 T10171056 10039 21017 401061017 56007
KM19 130456Z AUTO 00000KT 10SM CLR 00/M07 A3016 RMK AO2 SLP218 T00001072
KM19 130356Z AUTO 32005KT 10SM CLR 01/M08 A3016 RMK AO2 SLP219 T00061083
KM19 130256Z AUTO 28005KT 10SM CLR 02/M09 A3017 RMK AO2 SLP224 T00221089 58003
KM19 130156Z AUTO 31004KT 10SM CLR 03/M09 A3018 RMK AO2 SLP228 T00281089
KM19 130056Z AUTO 31004KT 10SM CLR 02/M08 A3018 RMK AO2 SLP226 T00221083
KM19 122356Z AUTO 31006KT 10SM CLR 03/M09 A3018 RMK AO2 SLP227 T00331089 10083 20033 56006
KM19 122256Z AUTO 30006KT 10SM CLR 04/M09 A3018 RMK AO2 SLP227 T00441089
KM19 122156Z AUTO 31007KT 10SM CLR 08/M10 A3019 RMK AO2 SLP230 T00781100
KM19 122056Z AUTO 33010KT 10SM CLR 08/M09 A3020 RMK AO2 SLP233 T00831094 56020
KM19 121956Z AUTO 33009KT 10SM CLR 08/M09 A3021 RMK AO2 SLP237 T00781089
KM19 121856Z AUTO 35011G16KT 10SM CLR 08/M08 A3023 RMK AO2 SLP244 T00781078
KM19 121756Z AUTO 33013KT 10SM CLR 07/M07 A3026 RMK AO2 SLP252 T00671072 10067 20028 58002
KM19 121656Z AUTO 31010KT 10SM CLR 06/M06 A3028 RMK AO2 SLP260 T00561056
KM19 121556Z AUTO 33012KT 10SM CLR 04/M05 A3028 RMK AO2 SLP261 T00391050
KM19 121456Z AUTO 33018KT 10SM CLR 03/M04 A3026 RMK AO2 SLP254 T00331039 51028
KM19 121356Z AUTO 33016G21KT 10SM CLR 03/M04 A3024 RMK AO2 SLP247 T00331039
KM19 121256Z AUTO 32012KT 10SM CLR 03/M03 A3022 RMK AO2 SLP239 T00331033
KM19 121156Z AUTO 33016G23KT 10SM FEW039 06/M02 A3018 RMK AO2 PK WND 33028/1136 SLP226 T00561022 10106 20039 53024
KM19 121056Z AUTO 32014G20KT 10SM OVC039 08/01 A3014 RMK AO2 SLP213 T00780006
KM19 120956Z AUTO 33008KT 10SM CLR 04/M01 A3011 RMK AO2 SLP202 T00441011
KM19 120856Z AUTO 31009KT 10SM CLR 07/M01 A3011 RMK AO2 SLP201 T00671006 51017
KM19 120756Z AUTO 32010KT 10SM CLR 08/M01 A3010 RMK AO2 SLP197 T00781011
KM19 120656Z AUTO 33011KT 10SM CLR 09/M01 A3008 RMK AO2 SLP192 T00891006
KM19 120556Z AUTO 33016KT 10SM CLR 11/M02 A3006 RMK AO2 SLP183 T01061017 10156 20106 402061006 53013
KM19 120456Z AUTO 32012KT 10SM CLR 11/M03 A3004 RMK AO2 SLP178 T01111033
KM19 120356Z AUTO 31010KT 10SM CLR 12/M04 A3003 RMK AO2 SLP176 T01171039
KM19 120256Z AUTO 32014KT 10SM CLR 12/M04 A3002 RMK AO2 SLP171 T01221044 51034
KM19 120156Z AUTO 34016KT 10SM CLR 12/M05 A2999 RMK AO2 SLP162 T01221050
KM19 120056Z AUTO 33012KT 10SM CLR 14/M06 A2996 RMK AO2 SLP151 T01391056
KM19 112356Z AUTO 27011KT 10SM CLR 16/M05 A2992 RMK AO2 SLP137 T01561050 10206 20156 53012
KM19 112256Z AUTO 24012KT 10SM CLR 18/M06 A2989 RMK AO2 SLP129 T01831056
KM19 112156Z AUTO 23018G23KT 10SM CLR 20/M05 A2987 RMK AO2 PK WND 23027/2113 SLP121 T02001050